sensor_id;sensor_type;location;lat;lon;timestamp;pressure;altitude;pressure_sealevel;temperature;humidity
72423;BME280;60413;55.658;37.498;2022-07-29T00:00:44;98984.13;;;15.40;100.00
72423;BME280;60413;55.658;37.498;2022-07-29T00:03:13;98981.00;;;15.32;100.00
72423;BME280;60413;55.658;37.498;2022-07-29T00:05:40;98968.84;;;15.16;100.00
72423;BME280;60413;55.658;37.498;2022-07-29T00:08:07;98983.44;;;15.24;100.00
72423;BME280;60413;55.658;37.498;2022-07-29T00:10:35;98987.13;;;15.23;100.00
72423;BME280;60413;55.658;37.498;2022-07-29T00:13:02;98979.00;;;15.04;100.00
72423;BME280;60413;55.658;37.498;2022-07-29T00:15:28;98987.44;;;15.11;100.00
72423;BME280;60413;55.658;37.498;2022-07-29T00:17:54;98981.91;;;15.07;100.00
72423;BME280;60413;55.658;37.498;2022-07-29T00:20:20;98974.50;;;14.99;100.00
72423;BME280;60413;55.658;37.498;2022-07-29T00:22:45;98992.50;;;15.12;100.00
72423;BME280;60413;55.658;37.498;2022-07-29T00:25:12;98993.81;;;15.10;100.00
72423;BME280;60413;55.658;37.498;2022-07-29T00:27:38;98965.47;;;14.90;100.00
72423;BME280;60413;55.658;37.498;2022-07-29T00:30:05;99006.06;;;15.06;100.00
72423;BME280;60413;55.658;37.498;2022-07-29T00:32:32;98965.78;;;14.83;100.00
72423;BME280;60413;55.658;37.498;2022-07-29T00:34:58;98979.03;;;14.83;100.00
72423;BME280;60413;55.658;37.498;2022-07-29T00:37:43;98972.97;;;14.77;100.00
72423;BME280;60413;55.658;37.498;2022-07-29T00:40:09;98968.72;;;14.66;100.00
72423;BME280;60413;55.658;37.498;2022-07-29T00:42:49;98980.13;;;14.67;100.00
72423;BME280;60413;55.658;37.498;2022-07-29T00:45:15;99002.66;;;14.79;100.00
72423;BME280;60413;55.658;37.498;2022-07-29T00:47:41;99002.94;;;14.78;100.00
72423;BME280;60413;55.658;37.498;2022-07-29T00:50:09;99003.19;;;14.76;100.00
72423;BME280;60413;55.658;37.498;2022-07-29T00:52:36;99006.13;;;14.70;100.00
72423;BME280;60413;55.658;37.498;2022-07-29T00:55:08;99008.25;;;14.68;100.00
72423;BME280;60413;55.658;37.498;2022-07-29T00:57:35;99007.19;;;14.58;100.00
72423;BME280;60413;55.658;37.498;2022-07-29T01:00:07;99010.91;;;14.62;100.00
72423;BME280;60413;55.658;37.498;2022-07-29T01:02:33;99012.50;;;14.58;100.00
72423;BME280;60413;55.658;37.498;2022-07-29T01:05:00;99014.09;;;14.64;100.00
72423;BME280;60413;55.658;37.498;2022-07-29T01:07:26;99016.75;;;14.59;100.00
72423;BME280;60413;55.658;37.498;2022-07-29T01:09:53;99003.47;;;14.64;100.00
72423;BME280;60413;55.658;37.498;2022-07-29T01:12:25;98981.97;;;14.56;100.00
72423;BME280;60413;55.658;37.498;2022-07-29T01:14:53;98985.69;;;14.50;100.00
72423;BME280;60413;55.658;37.498;2022-07-29T01:17:33;99009.56;;;14.50;100.00
72423;BME280;60413;55.658;37.498;2022-07-29T01:31:31;98996.59;;;14.22;100.00
72423;BME280;60413;55.658;37.498;2022-07-29T01:34:03;98987.03;;;14.16;100.00
72423;BME280;60413;55.658;37.498;2022-07-29T01:36:54;99022.03;;;14.39;100.00
72423;BME280;60413;55.658;37.498;2022-07-29T01:39:31;99007.19;;;14.12;100.00
72423;BME280;60413;55.658;37.498;2022-07-29T01:42:05;99025.47;;;14.39;100.00
72423;BME280;60413;55.658;37.498;2022-07-29T01:44:37;98952.84;;;13.89;100.00
72423;BME280;60413;55.658;37.498;2022-07-29T01:47:11;99005.59;;;14.37;100.00
72423;BME280;60413;55.658;37.498;2022-07-29T01:49:42;99023.34;;;14.36;100.00
72423;BME280;60413;55.658;37.498;2022-07-29T01:52:23;99011.44;;;14.34;100.00
72423;BME280;60413;55.658;37.498;2022-07-29T01:55:04;98980.41;;;14.29;100.00
72423;BME280;60413;55.658;37.498;2022-07-29T01:57:33;99013.53;;;14.57;100.00
72423;BME280;60413;55.658;37.498;2022-07-29T02:00:03;99013.03;;;14.66;100.00
72423;BME280;60413;55.658;37.498;2022-07-29T02:02:39;99010.34;;;14.86;100.00
72423;BME280;60413;55.658;37.498;2022-07-29T02:05:08;99035.09;;;15.47;100.00
72423;BME280;60413;55.658;37.498;2022-07-29T02:07:36;99015.00;;;15.90;100.00
72423;BME280;60413;55.658;37.498;2022-07-29T02:10:06;99026.81;;;16.72;100.00
72423;BME280;60413;55.658;37.498;2022-07-29T02:12:33;99009.97;;;17.11;100.00
72423;BME280;60413;55.658;37.498;2022-07-29T02:15:05;99024.00;;;17.41;100.00
72423;BME280;60413;55.658;37.498;2022-07-29T02:17:44;99031.16;;;17.21;100.00
72423;BME280;60413;55.658;37.498;2022-07-29T02:20:12;99006.41;;;17.21;100.00
72423;BME280;60413;55.658;37.498;2022-07-29T02:22:39;99014.44;;;17.78;100.00
72423;BME280;60413;55.658;37.498;2022-07-29T02:25:10;98987.88;;;18.11;100.00
72423;BME280;60413;55.658;37.498;2022-07-29T02:27:37;99013.38;;;18.83;100.00
72423;BME280;60413;55.658;37.498;2022-07-29T02:30:05;99013.84;;;19.13;100.00
72423;BME280;60413;55.658;37.498;2022-07-29T02:32:35;99015.63;;;19.45;100.00
72423;BME280;60413;55.658;37.498;2022-07-29T02:35:03;99041.66;;;20.04;100.00
72423;BME280;60413;55.658;37.498;2022-07-29T02:37:30;99009.06;;;20.24;100.00
72423;BME280;60413;55.658;37.498;2022-07-29T02:39:58;99016.31;;;20.24;100.00
72423;BME280;60413;55.658;37.498;2022-07-29T02:42:27;99020.56;;;19.52;100.00
72423;BME280;60413;55.658;37.498;2022-07-29T02:44:54;99020.69;;;18.44;100.00
72423;BME280;60413;55.658;37.498;2022-07-29T02:47:42;99038.66;;;17.63;100.00
72423;BME280;60413;55.658;37.498;2022-07-29T02:52:59;99038.75;;;17.09;100.00
72423;BME280;60413;55.658;37.498;2022-07-29T02:55:32;99001.47;;;16.56;100.00
72423;BME280;60413;55.658;37.498;2022-07-29T02:58:14;99020.00;;;16.32;100.00
72423;BME280;60413;55.658;37.498;2022-07-29T03:00:42;99013.25;;;16.44;100.00
72423;BME280;60413;55.658;37.498;2022-07-29T03:03:13;98992.44;;;16.22;100.00
72423;BME280;60413;55.658;37.498;2022-07-29T03:05:40;99009.63;;;16.30;100.00
72423;BME280;60413;55.658;37.498;2022-07-29T03:08:09;99034.63;;;16.34;100.00
72423;BME280;60413;55.658;37.498;2022-07-29T03:10:37;99008.16;;;16.77;100.00
72423;BME280;60413;55.658;37.498;2022-07-29T03:13:04;99029.72;;;17.05;100.00
72423;BME280;60413;55.658;37.498;2022-07-29T03:15:31;99026.22;;;16.80;100.00
72423;BME280;60413;55.658;37.498;2022-07-29T03:17:58;99022.78;;;16.51;100.00
72423;BME280;60413;55.658;37.498;2022-07-29T03:20:26;99028.72;;;16.42;100.00
72423;BME280;60413;55.658;37.498;2022-07-29T03:22:54;99032.25;;;16.33;100.00
72423;BME280;60413;55.658;37.498;2022-07-29T03:25:20;98996.31;;;16.01;100.00
72423;BME280;60413;55.658;37.498;2022-07-29T03:27:46;99005.28;;;16.10;100.00
72423;BME280;60413;55.658;37.498;2022-07-29T03:30:13;99022.19;;;16.54;100.00
72423;BME280;60413;55.658;37.498;2022-07-29T03:32:40;99036.00;;;17.82;100.00
72423;BME280;60413;55.658;37.498;2022-07-29T03:35:07;99022.97;;;18.98;100.00
72423;BME280;60413;55.658;37.498;2022-07-29T03:37:35;99012.28;;;19.12;100.00
72423;BME280;60413;55.658;37.498;2022-07-29T03:40:05;99007.78;;;20.44;100.00
72423;BME280;60413;55.658;37.498;2022-07-29T03:42:33;98990.88;;;21.73;100.00
72423;BME280;60413;55.658;37.498;2022-07-29T03:45:07;99010.31;;;22.78;100.00
72423;BME280;60413;55.658;37.498;2022-07-29T03:47:35;99012.47;;;23.53;100.00
72423;BME280;60413;55.658;37.498;2022-07-29T03:50:06;99003.66;;;23.95;100.00
72423;BME280;60413;55.658;37.498;2022-07-29T03:52:33;99028.66;;;24.62;100.00
72423;BME280;60413;55.658;37.498;2022-07-29T03:55:00;99023.88;;;24.92;100.00
72423;BME280;60413;55.658;37.498;2022-07-29T03:57:27;99032.50;;;25.72;100.00
72423;BME280;60413;55.658;37.498;2022-07-29T03:59:54;99043.03;;;25.89;100.00
72423;BME280;60413;55.658;37.498;2022-07-29T04:02:20;99060.88;;;26.06;100.00
72423;BME280;60413;55.658;37.498;2022-07-29T04:04:49;99049.34;;;26.38;100.00
72423;BME280;60413;55.658;37.498;2022-07-29T04:07:15;99017.09;;;26.29;100.00
72423;BME280;60413;55.658;37.498;2022-07-29T04:09:41;99041.25;;;26.82;100.00
72423;BME280;60413;55.658;37.498;2022-07-29T04:12:08;99041.41;;;26.29;100.00
72423;BME280;60413;55.658;37.498;2022-07-29T04:14:34;99011.47;;;26.06;100.00
72423;BME280;60413;55.658;37.498;2022-07-29T04:17:01;99028.47;;;26.35;100.00
72423;BME280;60413;55.658;37.498;2022-07-29T04:19:30;99038.34;;;26.59;100.00
72423;BME280;60413;55.658;37.498;2022-07-29T04:21:57;99050.41;;;26.33;100.00
72423;BME280;60413;55.658;37.498;2022-07-29T04:24:23;99054.50;;;27.35;100.00
72423;BME280;60413;55.658;37.498;2022-07-29T04:26:49;99019.53;;;27.10;100.00
72423;BME280;60413;55.658;37.498;2022-07-29T04:29:15;99042.22;;;26.90;100.00
72423;BME280;60413;55.658;37.498;2022-07-29T04:31:44;99049.19;;;26.75;100.00
72423;BME280;60413;55.658;37.498;2022-07-29T04:34:10;99056.31;;;26.23;100.00
72423;BME280;60413;55.658;37.498;2022-07-29T04:36:36;99021.81;;;26.32;100.00
72423;BME280;60413;55.658;37.498;2022-07-29T04:39:03;99044.66;;;26.35;100.00
72423;BME280;60413;55.658;37.498;2022-07-29T04:41:29;99071.69;;;26.79;100.00
72423;BME280;60413;55.658;37.498;2022-07-29T04:43:55;99066.06;;;26.56;100.00
72423;BME280;60413;55.658;37.498;2022-07-29T04:46:20;99058.81;;;26.88;100.00
72423;BME280;60413;55.658;37.498;2022-07-29T04:48:46;99069.28;;;26.90;100.00
72423;BME280;60413;55.658;37.498;2022-07-29T04:51:14;99036.41;;;26.15;100.00
72423;BME280;60413;55.658;37.498;2022-07-29T04:53:40;99069.13;;;26.26;100.00
72423;BME280;60413;55.658;37.498;2022-07-29T04:56:05;99067.16;;;26.11;100.00
72423;BME280;60413;55.658;37.498;2022-07-29T04:58:34;99031.41;;;25.89;100.00
72423;BME280;60413;55.658;37.498;2022-07-29T05:01:03;99052.44;;;26.36;100.00
72423;BME280;60413;55.658;37.498;2022-07-29T05:04:33;99078.53;;;27.37;100.00
72423;BME280;60413;55.658;37.498;2022-07-29T05:06:54;99085.41;;;27.02;100.00
72423;BME280;60413;55.658;37.498;2022-07-29T05:09:20;99061.91;;;27.06;100.00
72423;BME280;60413;55.658;37.498;2022-07-29T05:11:46;99016.31;;;26.73;100.00
72423;BME280;60413;55.658;37.498;2022-07-29T05:14:12;99047.72;;;26.49;100.00
72423;BME280;60413;55.658;37.498;2022-07-29T05:16:38;99053.16;;;25.80;100.00
72423;BME280;60413;55.658;37.498;2022-07-29T05:19:05;99054.25;;;25.92;100.00
72423;BME280;60413;55.658;37.498;2022-07-29T05:21:31;99058.25;;;26.83;100.00
72423;BME280;60413;55.658;37.498;2022-07-29T05:23:57;99053.81;;;26.74;100.00
72423;BME280;60413;55.658;37.498;2022-07-29T05:26:23;99021.41;;;27.42;100.00
72423;BME280;60413;55.658;37.498;2022-07-29T05:28:51;99054.13;;;27.52;100.00
72423;BME280;60413;55.658;37.498;2022-07-29T05:31:17;99007.25;;;27.68;100.00
72423;BME280;60413;55.658;37.498;2022-07-29T05:33:44;99053.91;;;27.61;100.00
72423;BME280;60413;55.658;37.498;2022-07-29T05:36:09;99041.00;;;27.54;100.00
72423;BME280;60413;55.658;37.498;2022-07-29T05:38:38;99058.94;;;27.27;100.00
72423;BME280;60413;55.658;37.498;2022-07-29T05:41:04;99053.38;;;27.20;100.00
72423;BME280;60413;55.658;37.498;2022-07-29T05:43:33;99053.09;;;27.77;100.00
72423;BME280;60413;55.658;37.498;2022-07-29T05:45:59;99006.72;;;27.43;100.00
72423;BME280;60413;55.658;37.498;2022-07-29T05:48:25;99073.38;;;27.86;100.00
72423;BME280;60413;55.658;37.498;2022-07-29T05:50:53;99010.41;;;27.70;100.00
72423;BME280;60413;55.658;37.498;2022-07-29T05:53:22;99059.53;;;27.52;100.00
72423;BME280;60413;55.658;37.498;2022-07-29T05:55:48;99040.44;;;27.45;100.00
72423;BME280;60413;55.658;37.498;2022-07-29T05:58:20;99025.34;;;27.12;100.00
72423;BME280;60413;55.658;37.498;2022-07-29T06:00:46;99042.22;;;26.74;100.00
72423;BME280;60413;55.658;37.498;2022-07-29T06:03:12;99051.38;;;27.17;100.00
72423;BME280;60413;55.658;37.498;2022-07-29T06:05:38;99019.53;;;27.10;100.00
72423;BME280;60413;55.658;37.498;2022-07-29T06:08:04;99036.63;;;26.83;100.00
72423;BME280;60413;55.658;37.498;2022-07-29T06:10:36;99017.97;;;26.93;100.00
72423;BME280;60413;55.658;37.498;2022-07-29T06:13:08;99035.03;;;27.45;100.00
72423;BME280;60413;55.658;37.498;2022-07-29T06:15:34;99029.13;;;27.59;100.00
72423;BME280;60413;55.658;37.498;2022-07-29T06:18:03;99021.47;;;26.18;100.00
72423;BME280;60413;55.658;37.498;2022-07-29T06:20:31;98987.91;;;25.50;100.00
72423;BME280;60413;55.658;37.498;2022-07-29T06:23:00;99036.59;;;25.41;100.00
72423;BME280;60413;55.658;37.498;2022-07-29T06:25:35;99030.69;;;26.17;100.00
72423;BME280;60413;55.658;37.498;2022-07-29T06:28:02;99025.91;;;25.32;100.00
72423;BME280;60413;55.658;37.498;2022-07-29T06:30:29;99027.13;;;25.60;100.00
72423;BME280;60413;55.658;37.498;2022-07-29T06:32:57;99024.00;;;24.50;100.00
72423;BME280;60413;55.658;37.498;2022-07-29T06:35:28;99016.16;;;24.91;100.00
72423;BME280;60413;55.658;37.498;2022-07-29T06:38:23;99053.31;;;25.72;100.00
72423;BME280;60413;55.658;37.498;2022-07-29T06:40:49;99001.66;;;26.14;100.00
72423;BME280;60413;55.658;37.498;2022-07-29T06:43:34;98994.28;;;26.42;100.00
72423;BME280;60413;55.658;37.498;2022-07-29T06:46:05;99049.78;;;27.16;100.00
72423;BME280;60413;55.658;37.498;2022-07-29T06:48:33;99018.84;;;27.49;100.00
72423;BME280;60413;55.658;37.498;2022-07-29T06:50:59;99009.53;;;27.66;100.00
72423;BME280;60413;55.658;37.498;2022-07-29T06:53:29;99053.19;;;28.85;100.00
72423;BME280;60413;55.658;37.498;2022-07-29T06:55:59;98997.09;;;28.66;100.00
72423;BME280;60413;55.658;37.498;2022-07-29T06:58:28;98994.28;;;28.59;100.00
72423;BME280;60413;55.658;37.498;2022-07-29T07:00:58;99050.09;;;29.10;100.00
72423;BME280;60413;55.658;37.498;2022-07-29T07:03:26;98983.09;;;27.98;100.00
72423;BME280;60413;55.658;37.498;2022-07-29T07:05:56;99019.13;;;27.99;100.00
72423;BME280;60413;55.658;37.498;2022-07-29T07:08:25;98994.00;;;27.27;100.00
72423;BME280;60413;55.658;37.498;2022-07-29T07:10:53;99050.25;;;27.02;100.00
72423;BME280;60413;55.658;37.498;2022-07-29T07:13:20;99014.34;;;25.85;100.00
72423;BME280;60413;55.658;37.498;2022-07-29T07:15:46;99004.44;;;25.48;100.00
72423;BME280;60413;55.658;37.498;2022-07-29T07:18:16;98999.13;;;26.81;100.00
72423;BME280;60413;55.658;37.498;2022-07-29T07:20:43;99018.66;;;28.36;100.00
72423;BME280;60413;55.658;37.498;2022-07-29T07:23:15;99043.59;;;29.41;100.00
72423;BME280;60413;55.658;37.498;2022-07-29T07:25:43;99008.97;;;30.29;100.00
72423;BME280;60413;55.658;37.498;2022-07-29T07:28:09;99053.09;;;30.15;99.35
72423;BME280;60413;55.658;37.498;2022-07-29T07:30:35;99002.09;;;28.87;100.00
72423;BME280;60413;55.658;37.498;2022-07-29T07:33:06;99015.44;;;26.69;100.00
72423;BME280;60413;55.658;37.498;2022-07-29T07:35:37;99008.97;;;24.83;100.00
72423;BME280;60413;55.658;37.498;2022-07-29T07:38:08;99020.56;;;25.73;100.00
72423;BME280;60413;55.658;37.498;2022-07-29T07:40:56;98997.44;;;26.60;100.00
72423;BME280;60413;55.658;37.498;2022-07-29T07:43:25;98996.72;;;27.82;100.00
72423;BME280;60413;55.658;37.498;2022-07-29T07:45:54;98994.56;;;27.52;100.00
72423;BME280;60413;55.658;37.498;2022-07-29T07:48:23;98988.19;;;27.45;100.00
72423;BME280;60413;55.658;37.498;2022-07-29T07:50:54;99001.66;;;27.41;100.00
72423;BME280;60413;55.658;37.498;2022-07-29T07:53:20;99004.97;;;26.83;100.00
72423;BME280;60413;55.658;37.498;2022-07-29T07:55:52;99019.13;;;26.04;100.00
72423;BME280;60413;55.658;37.498;2022-07-29T08:01:16;99071.53;;;27.71;100.00
72423;BME280;60413;55.658;37.498;2022-07-29T08:03:57;99044.38;;;26.24;100.00
72423;BME280;60413;55.658;37.498;2022-07-29T08:07:05;99013.78;;;25.39;100.00
72423;BME280;60413;55.658;37.498;2022-07-29T08:10:04;99073.50;;;24.79;100.00
72423;BME280;60413;55.658;37.498;2022-07-29T08:12:34;99050.44;;;26.05;100.00
72423;BME280;60413;55.658;37.498;2022-07-29T08:18:05;99038.50;;;28.20;100.00
72423;BME280;60413;55.658;37.498;2022-07-29T08:20:31;98999.88;;;28.04;100.00
72423;BME280;60413;55.658;37.498;2022-07-29T08:23:11;99024.38;;;28.11;100.00
72423;BME280;60413;55.658;37.498;2022-07-29T08:25:37;99054.66;;;27.42;100.00
72423;BME280;60413;55.658;37.498;2022-07-29T08:28:14;99014.31;;;25.57;100.00
72423;BME280;60413;55.658;37.498;2022-07-29T08:31:39;99073.81;;;26.13;100.00
72423;BME280;60413;55.658;37.498;2022-07-29T08:34:05;99027.28;;;26.64;100.00
72423;BME280;60413;55.658;37.498;2022-07-29T08:36:32;99036.00;;;27.37;100.00
72423;BME280;60413;55.658;37.498;2022-07-29T08:38:59;99023.28;;;27.57;100.00
72423;BME280;60413;55.658;37.498;2022-07-29T08:41:35;99033.63;;;27.71;100.00
72423;BME280;60413;55.658;37.498;2022-07-29T08:44:02;99011.91;;;27.32;100.00
72423;BME280;60413;55.658;37.498;2022-07-29T08:46:30;99017.75;;;27.18;100.00
72423;BME280;60413;55.658;37.498;2022-07-29T08:48:59;99024.03;;;27.93;100.00
72423;BME280;60413;55.658;37.498;2022-07-29T08:51:26;99034.00;;;28.51;100.00
72423;BME280;60413;55.658;37.498;2022-07-29T08:53:56;99035.88;;;28.47;98.43
72423;BME280;60413;55.658;37.498;2022-07-29T08:56:30;99011.19;;;27.70;99.39
72423;BME280;60413;55.658;37.498;2022-07-29T08:59:30;99050.56;;;28.03;100.00
72423;BME280;60413;55.658;37.498;2022-07-29T09:02:35;99011.78;;;28.42;100.00
72423;BME280;60413;55.658;37.498;2022-07-29T09:05:13;99008.16;;;28.77;98.79
72423;BME280;60413;55.658;37.498;2022-07-29T09:08:05;98998.50;;;29.06;95.61
72423;BME280;60413;55.658;37.498;2022-07-29T09:13:50;99025.16;;;27.92;99.05
72423;BME280;60413;55.658;37.498;2022-07-29T09:16:22;99018.28;;;26.60;100.00
72423;BME280;60413;55.658;37.498;2022-07-29T09:18:51;99042.44;;;25.43;100.00
72423;BME280;60413;55.658;37.498;2022-07-29T09:21:17;99023.13;;;25.41;100.00
72423;BME280;60413;55.658;37.498;2022-07-29T09:24:08;98989.97;;;25.81;100.00
72423;BME280;60413;55.658;37.498;2022-07-29T09:26:45;99020.47;;;26.86;100.00
72423;BME280;60413;55.658;37.498;2022-07-29T09:29:20;99033.69;;;27.55;100.00
72423;BME280;60413;55.658;37.498;2022-07-29T09:31:49;99015.22;;;26.01;100.00
72423;BME280;60413;55.658;37.498;2022-07-29T09:34:28;99029.41;;;26.27;100.00
72423;BME280;60413;55.658;37.498;2022-07-29T09:37:00;99020.84;;;27.01;100.00
72423;BME280;60413;55.658;37.498;2022-07-29T09:39:37;99050.16;;;27.66;100.00
72423;BME280;60413;55.658;37.498;2022-07-29T09:42:16;99027.78;;;27.69;100.00
72423;BME280;60413;55.658;37.498;2022-07-29T09:44:55;99021.53;;;27.13;100.00
72423;BME280;60413;55.658;37.498;2022-07-29T09:47:46;98997.69;;;27.19;100.00
72423;BME280;60413;55.658;37.498;2022-07-29T09:50:17;99002.25;;;26.99;100.00
72423;BME280;60413;55.658;37.498;2022-07-29T09:52:51;99001.38;;;27.46;100.00
72423;BME280;60413;55.658;37.498;2022-07-29T09:55:21;99050.19;;;28.05;100.00
72423;BME280;60413;55.658;37.498;2022-07-29T09:57:47;99015.66;;;27.43;100.00
72423;BME280;60413;55.658;37.498;2022-07-29T10:00:18;99017.09;;;27.05;100.00
72423;BME280;60413;55.658;37.498;2022-07-29T10:02:47;99022.75;;;27.32;100.00
72423;BME280;60413;55.658;37.498;2022-07-29T10:05:36;99012.78;;;27.20;100.00
72423;BME280;60413;55.658;37.498;2022-07-29T10:08:08;99021.72;;;26.29;100.00
72423;BME280;60413;55.658;37.498;2022-07-29T10:13:50;99056.59;;;24.91;100.00
72423;BME280;60413;55.658;37.498;2022-07-29T10:16:19;99009.03;;;23.95;100.00
72423;BME280;60413;55.658;37.498;2022-07-29T10:19:00;99005.59;;;23.64;100.00
72423;BME280;60413;55.658;37.498;2022-07-29T10:22:12;98990.31;;;23.98;100.00
72423;BME280;60413;55.658;37.498;2022-07-29T10:24:41;99011.91;;;24.44;100.00
72423;BME280;60413;55.658;37.498;2022-07-29T10:27:08;99000.72;;;24.67;100.00
72423;BME280;60413;55.658;37.498;2022-07-29T10:29:46;99053.75;;;24.87;100.00
72423;BME280;60413;55.658;37.498;2022-07-29T10:32:28;99051.84;;;25.12;100.00
72423;BME280;60413;55.658;37.498;2022-07-29T10:44:05;98993.56;;;24.83;100.00
72423;BME280;60413;55.658;37.498;2022-07-29T10:46:37;99019.97;;;24.77;100.00
72423;BME280;60413;55.658;37.498;2022-07-29T10:49:20;99003.16;;;24.14;100.00
72423;BME280;60413;55.658;37.498;2022-07-29T10:52:32;99040.50;;;24.15;100.00
72423;BME280;60413;55.658;37.498;2022-07-29T10:55:29;99045.44;;;24.13;100.00
72423;BME280;60413;55.658;37.498;2022-07-29T10:58:19;99049.81;;;23.55;100.00
72423;BME280;60413;55.658;37.498;2022-07-29T11:00:50;98993.69;;;23.23;100.00
72423;BME280;60413;55.658;37.498;2022-07-29T11:09:19;99054.53;;;24.75;100.00
72423;BME280;60413;55.658;37.498;2022-07-29T11:11:45;99051.53;;;25.39;100.00
72423;BME280;60413;55.658;37.498;2022-07-29T11:14:18;99003.28;;;25.62;100.00
72423;BME280;60413;55.658;37.498;2022-07-29T11:17:03;99015.78;;;25.54;100.00
72423;BME280;60413;55.658;37.498;2022-07-29T11:22:34;99036.34;;;24.97;100.00
72423;BME280;60413;55.658;37.498;2022-07-29T11:25:16;99055.84;;;24.57;100.00
72423;BME280;60413;55.658;37.498;2022-07-29T11:27:46;99012.22;;;24.42;100.00
72423;BME280;60413;55.658;37.498;2022-07-29T11:30:16;98988.28;;;23.95;100.00
72423;BME280;60413;55.658;37.498;2022-07-29T11:32:44;99017.66;;;24.21;100.00
72423;BME280;60413;55.658;37.498;2022-07-29T11:35:32;98993.31;;;24.64;100.00
72423;BME280;60413;55.658;37.498;2022-07-29T11:38:23;99035.13;;;25.44;100.00
72423;BME280;60413;55.658;37.498;2022-07-29T12:21:59;99022.53;;;24.40;100.00
72423;BME280;60413;55.658;37.498;2022-07-29T12:26:16;99016.16;;;24.12;100.00
72423;BME280;60413;55.658;37.498;2022-07-29T12:33:13;99038.53;;;24.25;100.00
72423;BME280;60413;55.658;37.498;2022-07-29T12:36:55;99045.66;;;24.41;100.00
72423;BME280;60413;55.658;37.498;2022-07-29T12:52:42;99003.34;;;24.42;100.00
72423;BME280;60413;55.658;37.498;2022-07-29T13:00:57;98980.53;;;23.52;100.00
72423;BME280;60413;55.658;37.498;2022-07-29T13:25:37;98975.22;;;25.38;100.00
72423;BME280;60413;55.658;37.498;2022-07-29T13:28:14;98979.84;;;25.13;100.00
72423;BME280;60413;55.658;37.498;2022-07-29T13:32:05;99020.75;;;25.27;100.00
72423;BME280;60413;55.658;37.498;2022-07-29T13:57:04;99042.72;;;24.68;100.00
72423;BME280;60413;55.658;37.498;2022-07-29T14:00:20;99042.72;;;24.68;100.00
72423;BME280;60413;55.658;37.498;2022-07-29T14:03:14;98990.19;;;24.28;100.00
72423;BME280;60413;55.658;37.498;2022-07-29T14:11:10;99026.97;;;23.91;100.00
72423;BME280;60413;55.658;37.498;2022-07-29T14:17:12;98978.94;;;23.29;100.00
72423;BME280;60413;55.658;37.498;2022-07-29T14:20:11;98983.66;;;23.54;100.00
72423;BME280;60413;55.658;37.498;2022-07-29T14:23:24;98972.50;;;24.06;100.00
72423;BME280;60413;55.658;37.498;2022-07-29T14:27:20;99021.41;;;25.12;100.00
72423;BME280;60413;55.658;37.498;2022-07-29T14:41:54;98956.50;;;24.80;100.00
72423;BME280;60413;55.658;37.498;2022-07-29T14:44:45;98964.25;;;24.82;100.00
72423;BME280;60413;55.658;37.498;2022-07-29T14:48:26;98969.91;;;24.31;100.00
72423;BME280;60413;55.658;37.498;2022-07-29T14:51:11;98968.63;;;24.16;100.00
72423;BME280;60413;55.658;37.498;2022-07-29T14:53:59;98980.50;;;24.60;100.00
72423;BME280;60413;55.658;37.498;2022-07-29T14:56:43;98998.28;;;24.86;100.00
72423;BME280;60413;55.658;37.498;2022-07-29T14:59:20;98992.19;;;24.65;100.00
72423;BME280;60413;55.658;37.498;2022-07-29T15:02:07;99010.41;;;24.80;100.00
72423;BME280;60413;55.658;37.498;2022-07-29T15:04:56;99008.59;;;25.09;100.00
72423;BME280;60413;55.658;37.498;2022-07-29T15:07:49;98989.84;;;25.12;100.00
72423;BME280;60413;55.658;37.498;2022-07-29T15:10:32;98984.22;;;25.05;100.00
72423;BME280;60413;55.658;37.498;2022-07-29T15:13:31;98998.72;;;24.88;100.00
72423;BME280;60413;55.658;37.498;2022-07-29T15:15:58;99014.91;;;24.88;100.00
72423;BME280;60413;55.658;37.498;2022-07-29T15:18:34;98997.50;;;24.40;100.00
72423;BME280;60413;55.658;37.498;2022-07-29T15:21:13;98964.09;;;24.08;100.00
72423;BME280;60413;55.658;37.498;2022-07-29T15:23:54;98967.88;;;23.94;100.00
72423;BME280;60413;55.658;37.498;2022-07-29T15:26:26;98971.41;;;23.65;100.00
72423;BME280;60413;55.658;37.498;2022-07-29T15:28:59;98996.16;;;23.58;100.00
72423;BME280;60413;55.658;37.498;2022-07-29T15:31:34;99022.31;;;23.70;100.00
72423;BME280;60413;55.658;37.498;2022-07-29T15:34:03;98990.56;;;23.42;100.00
72423;BME280;60413;55.658;37.498;2022-07-29T15:36:58;98985.66;;;23.44;100.00
72423;BME280;60413;55.658;37.498;2022-07-29T15:39:45;99018.38;;;23.46;100.00
72423;BME280;60413;55.658;37.498;2022-07-29T15:42:29;98991.59;;;23.29;100.00
72423;BME280;60413;55.658;37.498;2022-07-29T15:48:05;99014.75;;;23.93;100.00
72423;BME280;60413;55.658;37.498;2022-07-29T15:54:29;98983.03;;;23.36;100.00
72423;BME280;60413;55.658;37.498;2022-07-29T15:57:00;98989.19;;;23.36;100.00
72423;BME280;60413;55.658;37.498;2022-07-29T16:00:30;99040.09;;;23.41;100.00
72423;BME280;60413;55.658;37.498;2022-07-29T16:03:35;99049.38;;;22.75;100.00
72423;BME280;60413;55.658;37.498;2022-07-29T16:06:23;99024.47;;;22.05;100.00
72423;BME280;60413;55.658;37.498;2022-07-29T16:09:10;99064.59;;;22.10;100.00
72423;BME280;60413;55.658;37.498;2022-07-29T16:11:46;99006.97;;;21.55;100.00
72423;BME280;60413;55.658;37.498;2022-07-29T16:14:39;99029.13;;;21.38;100.00
72423;BME280;60413;55.658;37.498;2022-07-29T16:17:29;99061.28;;;21.29;100.00
72423;BME280;60413;55.658;37.498;2022-07-29T16:20:13;99024.31;;;21.00;100.00